Time;durP1;ratioP1;P1;durP2;ratioP2;P2;SDS_P1;SDS_P2;PMS_P1;PMS_P2;Temp;Humidity;BMP_temperature;BMP_pressure;BME280_temperature;BME280_humidity;BME280_pressure;Samples;Min_cycle;Max_cycle;Signal;HPM_P1;HPM_P2
2023/04/23 00:02:25;;;;;;;;;;;;;;;7.22;100.00;100813.59;4978236;28;19929;-45
2023/04/23 00:04:51;;;;;;;;;;;;;;;7.21;100.00;100804.13;4978218;28;20000;-45
2023/04/23 00:07:18;;;;;;;;;;;;;;;7.21;100.00;100805.81;5068647;28;20394;-45
2023/04/23 00:09:43;;;;;;;;;;;;;;;7.20;100.00;100804.94;4986852;28;19930;-46
2023/04/23 00:12:09;;;;;;;;;;;;;;;7.17;100.00;100789.50;4990792;28;19925;-45
2023/04/23 00:14:34;;;;;;;;;;;;;;;7.19;100.00;100794.66;4986244;28;20016;-44
2023/04/23 00:17:00;;;;;;;;;;;;;;;7.17;100.00;100786.06;4982424;28;19976;-45
2023/04/23 00:19:25;;;;;;;;;;;;;;;7.17;100.00;100789.50;4979365;28;20388;-44
2023/04/23 00:21:50;;;;;;;;;;;;;;;7.17;100.00;100783.50;4981597;28;20010;-44
2023/04/23 00:24:16;;;;;;;;;;;;;;;7.16;100.00;100781.75;4975416;28;19929;-45
2023/04/23 00:26:41;;;;;;;;;;;;;;;7.14;100.00;100781.69;4982766;28;19967;-45
2023/04/23 00:29:06;;;;;;;;;;;;;;;7.13;100.00;100773.97;4980707;28;20410;-44
2023/04/23 00:31:31;;;;;;;;;;;;;;;7.14;100.00;100776.56;4981069;28;20440;-44
2023/04/23 00:33:57;;;;;;;;;;;;;;;7.16;100.00;100781.75;4978705;28;19926;-45
2023/04/23 00:36:22;;;;;;;;;;;;;;;7.15;100.00;100777.44;4979202;28;19965;-45
2023/04/23 00:38:47;;;;;;;;;;;;;;;7.13;100.00;100777.38;4979791;28;19941;-46
2023/04/23 00:41:13;;;;;;;;;;;;;;;7.12;100.00;100767.09;4979220;28;20224;-47
2023/04/23 00:43:38;;;;;;;;;;;;;;;7.10;100.00;100774.72;4980246;28;20277;-44
2023/04/23 00:46:04;;;;;;;;;;;;;;;7.07;100.00;100772.03;4988972;28;19922;-44
2023/04/23 00:48:30;;;;;;;;;;;;;;;7.07;100.00;100771.16;4983769;28;20491;-44
2023/04/23 00:50:57;;;;;;;;;;;;;;;7.04;100.00;100768.47;4988230;28;19930;-45
2023/04/23 00:53:22;;;;;;;;;;;;;;;7.01;100.00;100761.56;4992031;28;20009;-45
2023/04/23 00:55:48;;;;;;;;;;;;;;;6.98;100.00;100769.97;4989538;28;20445;-54
2023/04/23 00:58:13;;;;;;;;;;;;;;;6.97;100.00;100757.97;4988531;28;19925;-53
2023/04/23 01:00:41;;;;;;;;;;;;;;;6.97;100.00;100757.13;4987080;28;19922;-52
2023/04/23 01:03:06;;;;;;;;;;;;;;;6.96;100.00;100752.81;4985312;28;20381;-52
2023/04/23 01:05:32;;;;;;;;;;;;;;;6.96;100.00;100750.25;4988606;28;19932;-52
2023/04/23 01:07:57;;;;;;;;;;;;;;;6.96;100.00;100750.25;4990936;28;19922;-52
2023/04/23 01:10:23;;;;;;;;;;;;;;;6.97;100.00;100750.31;4987933;28;19925;-53
2023/04/23 01:12:49;;;;;;;;;;;;;;;7.00;100.00;100741.91;4991959;28;19921;-53
2023/04/23 01:15:14;;;;;;;;;;;;;;;7.02;100.00;100736.84;4985824;28;19934;-55
2023/04/23 01:17:40;;;;;;;;;;;;;;;7.02;100.00;100739.41;4991022;28;19929;-53
2023/04/23 01:20:05;;;;;;;;;;;;;;;7.02;100.00;100740.28;4988391;28;19922;-52
2023/04/23 01:22:32;;;;;;;;;;;;;;;7.04;100.00;100736.13;4978967;28;19921;-53
2023/04/23 01:24:57;;;;;;;;;;;;;;;7.03;100.00;100728.38;4983060;28;20025;-52
2023/04/23 01:27:23;;;;;;;;;;;;;;;7.02;100.00;100718.97;4981173;28;20440;-53
2023/04/23 01:29:49;;;;;;;;;;;;;;;7.00;100.00;100729.13;4980725;28;19933;-52
2023/04/23 01:32:14;;;;;;;;;;;;;;;6.98;100.00;100730.78;4979204;28;19922;-54
2023/04/23 01:34:39;;;;;;;;;;;;;;;6.96;100.00;100730.69;4992448;28;20406;-54
2023/04/23 01:37:05;;;;;;;;;;;;;;;6.94;100.00;100727.19;4980309;28;19980;-53
2023/04/23 01:39:31;;;;;;;;;;;;;;;6.92;100.00;100723.72;4985852;28;19922;-53
2023/04/23 01:41:57;;;;;;;;;;;;;;;6.90;100.00;100725.31;4981741;28;19976;-53
2023/04/23 01:44:22;;;;;;;;;;;;;;;6.90;100.00;100719.34;4982314;28;19929;-53
2023/04/23 01:46:47;;;;;;;;;;;;;;;6.88;100.00;100728.63;4983513;28;20391;-53
2023/04/23 01:49:13;;;;;;;;;;;;;;;6.86;100.00;100728.59;4986999;28;19965;-53
2023/04/23 01:51:38;;;;;;;;;;;;;;;6.86;100.00;100728.59;4990818;28;20020;-53
2023/04/23 01:54:04;;;;;;;;;;;;;;;6.84;100.00;100729.31;4993285;28;19929;-52
2023/04/23 01:56:29;;;;;;;;;;;;;;;6.84;100.00;100721.66;4995784;28;19922;-52
2023/04/23 01:58:55;;;;;;;;;;;;;;;6.83;100.00;100728.44;4989108;28;20033;-53
2023/04/23 02:01:20;;;;;;;;;;;;;;;6.84;100.00;100721.66;4988470;28;20012;-53
2023/04/23 02:03:48;;;;;;;;;;;;;;;6.85;100.00;100721.69;4996237;28;19929;-50
2023/04/23 02:06:13;;;;;;;;;;;;;;;6.87;100.00;100720.09;4989843;28;20235;-52
2023/04/23 02:08:38;;;;;;;;;;;;;;;6.87;100.00;100715.00;4990415;28;20032;-51
2023/04/23 02:11:05;;;;;;;;;;;;;;;6.88;100.00;100720.97;4995339;28;19933;-53
2023/04/23 02:13:30;;;;;;;;;;;;;;;6.86;100.00;100718.38;4996539;28;19961;-52
2023/04/23 02:15:55;;;;;;;;;;;;;;;6.86;100.00;100722.59;4994272;28;19960;-53
2023/04/23 02:18:21;;;;;;;;;;;;;;;6.84;100.00;100716.53;4994550;28;19922;-53
2023/04/23 02:20:46;;;;;;;;;;;;;;;6.81;100.00;100714.75;4998095;28;20070;-50
2023/04/23 02:23:11;;;;;;;;;;;;;;;6.79;100.00;100711.22;4981856;28;19921;-45
2023/04/23 02:25:39;;;;;;;;;;;;;;;6.79;100.00;100695.91;4993689;28;20399;-44
2023/04/23 02:28:06;;;;;;;;;;;;;;;6.80;100.00;100699.34;4983370;28;19922;-44
2023/04/23 02:30:34;;;;;;;;;;;;;;;6.80;100.00;100707.03;4988472;28;20364;-44
2023/04/23 02:32:59;;;;;;;;;;;;;;;6.80;100.00;100707.88;4982786;28;19922;-44
2023/04/23 02:35:25;;;;;;;;;;;;;;;6.78;100.00;100706.94;4982740;28;19906;-44
2023/04/23 02:37:53;;;;;;;;;;;;;;;6.78;100.00;100704.38;4981468;28;20074;-44
2023/04/23 02:40:18;;;;;;;;;;;;;;;6.78;100.00;100708.63;4995015;28;20396;-44
2023/04/23 02:42:43;;;;;;;;;;;;;;;6.75;100.00;100705.97;4983907;28;19941;-44
2023/04/23 02:45:08;;;;;;;;;;;;;;;6.72;100.00;100699.88;4999049;28;19923;-45
2023/04/23 02:47:34;;;;;;;;;;;;;;;6.71;100.00;100708.38;4980842;28;21975;-45
2023/04/23 02:50:02;;;;;;;;;;;;;;;6.71;100.00;100700.72;4984866;28;19934;-45
2023/04/23 02:52:27;;;;;;;;;;;;;;;6.70;100.00;100701.53;4984618;28;19921;-46
2023/04/23 02:54:52;;;;;;;;;;;;;;;6.69;100.00;100709.13;4996135;28;19922;-45
2023/04/23 02:57:18;;;;;;;;;;;;;;;6.71;100.00;100704.94;4994504;28;21673;-44
2023/04/23 02:59:43;;;;;;;;;;;;;;;6.71;100.00;100702.38;4995885;28;21816;-44
2023/04/23 03:02:08;;;;;;;;;;;;;;;6.73;100.00;100703.31;4989546;28;19961;-45
2023/04/23 03:04:34;;;;;;;;;;;;;;;6.76;100.00;100710.25;4996467;28;20040;-47
2023/04/23 03:06:59;;;;;;;;;;;;;;;6.79;100.00;100702.69;4993088;28;20347;-44
2023/04/23 03:09:24;;;;;;;;;;;;;;;6.82;100.00;100705.38;4990337;28;20392;-47
2023/04/23 03:11:50;;;;;;;;;;;;;;;6.84;100.00;100699.50;4991212;28;20454;-47
2023/04/23 03:14:15;;;;;;;;;;;;;;;6.83;100.00;100691.78;4994676;28;19929;-46
2023/04/23 03:16:40;;;;;;;;;;;;;;;6.87;100.00;100698.78;4988874;28;19928;-45
2023/04/23 03:19:05;;;;;;;;;;;;;;;6.87;100.00;100694.53;4989662;28;19925;-44
2023/04/23 03:21:31;;;;;;;;;;;;;;;6.88;100.00;100686.06;4991537;28;19964;-45
2023/04/23 03:23:56;;;;;;;;;;;;;;;6.89;100.00;100685.25;4990226;28;19936;-45
2023/04/23 03:26:21;;;;;;;;;;;;;;;6.90;100.00;100686.97;4987965;28;20000;-46
2023/04/23 03:28:47;;;;;;;;;;;;;;;6.88;100.00;100677.53;4988091;28;19930;-53
2023/04/23 03:31:12;;;;;;;;;;;;;;;6.88;100.00;100683.50;4995664;28;19971;-53
2023/04/23 03:33:37;;;;;;;;;;;;;;;6.90;100.00;100683.56;4987414;28;19948;-53
2023/04/23 03:36:03;;;;;;;;;;;;;;;6.90;100.00;100686.97;4990683;28;20401;-53
2023/04/23 03:38:28;;;;;;;;;;;;;;;6.91;100.00;100681.06;4993877;28;19989;-52
2023/04/23 03:40:53;;;;;;;;;;;;;;;6.94;100.00;100685.44;4991339;28;20388;-53
2023/04/23 03:43:19;;;;;;;;;;;;;;;6.95;100.00;100685.50;4998119;28;19937;-53
2023/04/23 03:45:44;;;;;;;;;;;;;;;6.99;100.00;100674.59;4989823;28;20336;-53
2023/04/23 03:48:09;;;;;;;;;;;;;;;7.03;100.00;100679.78;4981722;28;19926;-53
2023/04/23 03:50:37;;;;;;;;;;;;;;;7.06;100.00;100679.94;4980598;28;19926;-54
2023/04/23 03:53:03;;;;;;;;;;;;;;;7.08;100.00;100678.28;4988982;28;19922;-54
2023/04/23 03:55:28;;;;;;;;;;;;;;;7.10;100.00;100679.22;4983184;28;19983;-53
2023/04/23 03:57:54;;;;;;;;;;;;;;;7.13;100.00;100681.91;4979923;28;19926;-54
2023/04/23 04:00:19;;;;;;;;;;;;;;;7.15;100.00;100681.16;4982512;28;19922;-53
2023/04/23 04:02:45;;;;;;;;;;;;;;;7.20;100.00;100683.88;4982544;28;20079;-54
2023/04/23 04:05:10;;;;;;;;;;;;;;;7.21;100.00;100681.38;4980205;28;19928;-52
2023/04/23 04:07:36;;;;;;;;;;;;;;;7.23;100.00;100681.47;4982121;28;19922;-52
2023/04/23 04:10:02;;;;;;;;;;;;;;;7.26;100.00;100679.00;4979527;28;19926;-53
2023/04/23 04:12:27;;;;;;;;;;;;;;;7.29;100.00;100691.94;4981094;28;19929;-52
2023/04/23 04:14:52;;;;;;;;;;;;;;;7.33;100.00;100696.31;4985729;28;19930;-54
2023/04/23 04:17:17;;;;;;;;;;;;;;;7.38;100.00;100691.41;4983724;28;20383;-52
2023/04/23 04:19:43;;;;;;;;;;;;;;;7.43;100.00;100692.44;4985934;28;19922;-53
2023/04/23 04:22:08;;;;;;;;;;;;;;;7.46;100.00;100690.88;4982856;28;19925;-54
2023/04/23 04:24:34;;;;;;;;;;;;;;;7.48;100.00;100681.56;4981425;28;20406;-54
2023/04/23 04:27:00;;;;;;;;;;;;;;;7.53;100.00;100690.31;4982971;28;19940;-53
2023/04/23 04:29:25;;;;;;;;;;;;;;;7.56;100.00;100689.53;4989558;28;20041;-52
2023/04/23 04:31:51;;;;;;;;;;;;;;;7.61;100.00;100695.69;4984848;28;20446;-52
2023/04/23 04:34:17;;;;;;;;;;;;;;;7.68;100.00;100692.53;4990798;28;19921;-48
2023/04/23 04:36:42;;;;;;;;;;;;;;;7.72;100.00;100699.53;4979809;28;19932;-44
2023/04/23 04:39:07;;;;;;;;;;;;;;;7.76;100.00;100687.69;4980394;28;19978;-45
2023/04/23 04:41:33;;;;;;;;;;;;;;;7.80;100.00;100693.00;4983009;28;20334;-46
2023/04/23 04:43:58;;;;;;;;;;;;;;;7.83;100.00;100693.94;4990587;28;19979;-44
2023/04/23 04:46:25;;;;;;;;;;;;;;;7.84;100.00;100688.00;4979852;28;19922;-44
2023/04/23 04:48:50;;;;;;;;;;;;;;;7.84;100.00;100683.75;4988388;28;19921;-45
2023/04/23 04:51:15;;;;;;;;;;;;;;;7.85;100.00;100682.91;4980863;28;19926;-46
2023/04/23 04:53:40;;;;;;;;;;;;;;;7.86;100.00;100686.34;4988057;28;19937;-44
2023/04/23 04:56:06;;;;;;;;;;;;;;;7.82;100.00;100679.38;4986413;28;20156;-44
2023/04/23 04:58:31;;;;;;;;;;;;;;;7.82;100.00;100682.78;4980264;28;19922;-48
2023/04/23 05:00:58;;;;;;;;;;;;;;;7.80;100.00;100689.56;4987640;28;19948;-46
2023/04/23 05:03:23;;;;;;;;;;;;;;;7.79;100.00;100678.44;4988074;28;19930;-44
2023/04/23 05:05:48;;;;;;;;;;;;;;;7.80;100.00;100684.44;4986973;28;20013;-45
2023/04/23 05:08:17;;;;;;;;;;;;;;;7.83;100.00;100694.81;4985020;28;20029;-45
2023/04/23 05:10:43;;;;;;;;;;;;;;;7.97;100.00;100682.50;4988679;28;19968;-46
2023/04/23 05:13:08;;;;;;;;;;;;;;;8.38;100.00;100686.53;4988115;28;19973;-45
2023/04/23 05:15:33;;;;;;;;;;;;;;;8.82;100.00;100682.00;4994041;28;19930;-55
2023/04/23 05:17:59;;;;;;;;;;;;;;;9.18;100.00;100679.72;4986026;28;19926;-55
2023/04/23 05:20:24;;;;;;;;;;;;;;;9.43;100.00;100676.19;4983693;28;19984;-55
2023/04/23 05:22:49;;;;;;;;;;;;;;;9.33;100.00;100680.16;4988578;28;19938;-53
2023/04/23 05:25:14;;;;;;;;;;;;;;;9.14;100.00;100688.13;4983075;28;20041;-53
2023/04/23 05:27:40;;;;;;;;;;;;;;;9.02;100.00;100690.31;4985664;28;19984;-53
2023/04/23 05:30:07;;;;;;;;;;;;;;;9.33;100.00;100697.25;4987269;28;19937;-53
2023/04/23 05:32:33;;;;;;;;;;;;;;;9.63;100.00;100697.28;4983082;28;20026;-52
2023/04/23 05:35:01;;;;;;;;;;;;;;;9.63;100.00;100680.19;4986732;28;20023;-53
2023/04/23 05:37:27;;;;;;;;;;;;;;;9.55;100.00;100679.13;4985180;28;19918;-53
2023/04/23 05:39:52;;;;;;;;;;;;;;;9.37;100.00;100681.13;4992362;28;19970;-55
2023/04/23 05:42:17;;;;;;;;;;;;;;;9.24;100.00;100697.00;4983464;28;19930;-54
2023/04/23 05:44:43;;;;;;;;;;;;;;;9.13;100.00;100694.97;4985771;28;19956;-53
2023/04/23 05:47:09;;;;;;;;;;;;;;;9.06;100.00;100689.59;4990562;28;19926;-54
2023/04/23 05:49:34;;;;;;;;;;;;;;;8.96;100.00;100687.56;4984236;28;19929;-52
2023/04/23 05:52:01;;;;;;;;;;;;;;;8.95;100.00;100685.81;4989466;28;19921;-53
2023/04/23 05:54:26;;;;;;;;;;;;;;;9.00;100.00;100686.84;4981659;28;19940;-54
2023/04/23 05:56:52;;;;;;;;;;;;;;;9.04;100.00;100684.44;4984937;28;19922;-52
2023/04/23 05:59:17;;;;;;;;;;;;;;;9.17;100.00;100675.41;4979340;28;19949;-53
2023/04/23 06:01:42;;;;;;;;;;;;;;;9.43;100.00;100675.31;4981120;28;20373;-53
2023/04/23 06:04:08;;;;;;;;;;;;;;;9.67;100.00;100686.31;4977441;28;20001;-55
2023/04/23 06:06:33;;;;;;;;;;;;;;;9.89;100.00;100680.97;4987575;28;19921;-53
2023/04/23 06:08:58;;;;;;;;;;;;;;;10.04;100.00;100677.91;4982827;28;19934;-54
2023/04/23 06:11:24;;;;;;;;;;;;;;;10.13;100.00;100688.47;4980369;28;19926;-52
2023/04/23 06:13:49;;;;;;;;;;;;;;;10.17;100.00;100680.00;4980424;28;20392;-52
2023/04/23 06:16:15;;;;;;;;;;;;;;;10.22;100.00;100674.97;4981654;28;19971;-53
2023/04/23 06:18:40;;;;;;;;;;;;;;;10.42;100.00;100671.25;4985943;28;19927;-51
2023/04/23 06:21:05;;;;;;;;;;;;;;;10.54;100.00;100668.13;4984103;28;19972;-53
2023/04/23 06:23:31;;;;;;;;;;;;;;;10.75;100.00;100672.94;4988105;28;19929;-54
2023/04/23 06:25:56;;;;;;;;;;;;;;;10.82;100.00;100666.22;4989262;28;19944;-53
2023/04/23 06:28:22;;;;;;;;;;;;;;;10.88;100.00;100666.38;4983575;28;20001;-52
2023/04/23 06:30:47;;;;;;;;;;;;;;;11.00;100.00;100656.38;4979560;28;19930;-53
2023/04/23 06:33:13;;;;;;;;;;;;;;;11.23;100.00;100654.31;4997772;28;19965;-53
2023/04/23 06:35:38;;;;;;;;;;;;;;;11.44;100.00;100653.91;4981692;28;19926;-52
2023/04/23 06:38:03;;;;;;;;;;;;;;;11.51;100.00;100643.75;4979988;28;20349;-56
2023/04/23 06:40:29;;;;;;;;;;;;;;;11.70;100.00;100641.56;4982813;28;19926;-53
2023/04/23 06:42:54;;;;;;;;;;;;;;;11.97;100.00;100649.00;4982926;28;19925;-52
2023/04/23 06:45:20;;;;;;;;;;;;;;;12.16;100.00;100645.03;4985100;28;19929;-53
2023/04/23 06:47:45;;;;;;;;;;;;;;;12.15;100.00;100645.91;4985747;28;19922;-52
2023/04/23 06:50:10;;;;;;;;;;;;;;;12.26;100.00;100644.38;4979881;28;21036;-52
2023/04/23 06:52:35;;;;;;;;;;;;;;;12.38;100.00;100642.00;4981601;28;19925;-53
2023/04/23 06:55:01;;;;;;;;;;;;;;;12.40;100.00;100639.44;5077701;28;20336;-52
2023/04/23 06:57:26;;;;;;;;;;;;;;;12.58;100.00;100643.19;4978136;28;20340;-54
2023/04/23 06:59:52;;;;;;;;;;;;;;;12.55;100.00;100643.13;4980988;28;19988;-53
2023/04/23 07:02:17;;;;;;;;;;;;;;;12.64;100.00;100639.00;4990041;28;19929;-54
2023/04/23 07:04:42;;;;;;;;;;;;;;;12.76;100.00;100640.06;4982674;28;19992;-53
2023/04/23 07:07:07;;;;;;;;;;;;;;;12.69;99.16;100640.81;4986892;28;20003;-53
2023/04/23 07:09:33;;;;;;;;;;;;;;;12.82;100.00;100640.16;4981696;28;19926;-52
2023/04/23 07:11:58;;;;;;;;;;;;;;;12.93;100.00;100637.72;4987376;28;19926;-54
2023/04/23 07:14:23;;;;;;;;;;;;;;;12.92;99.61;100635.09;4983926;28;20284;-54
2023/04/23 07:16:49;;;;;;;;;;;;;;;12.86;100.00;100634.19;4980580;28;19922;-54
2023/04/23 07:19:14;;;;;;;;;;;;;;;12.96;100.00;100630.03;4982292;28;19964;-52
2023/04/23 07:21:40;;;;;;;;;;;;;;;13.15;99.58;100638.88;4979243;28;20414;-53
2023/04/23 07:24:05;;;;;;;;;;;;;;;13.16;98.77;100627.72;4977584;28;19926;-53
2023/04/23 07:26:34;;;;;;;;;;;;;;;13.18;97.82;100638.94;4983373;28;19926;-52
2023/04/23 07:29:00;;;;;;;;;;;;;;;13.25;99.19;100634.75;4983943;28;19956;-53
2023/04/23 07:31:25;;;;;;;;;;;;;;;13.29;99.56;100642.59;4978117;28;19925;-52
2023/04/23 07:33:51;;;;;;;;;;;;;;;13.38;97.72;100632.34;4983146;28;20030;-52
2023/04/23 07:36:16;;;;;;;;;;;;;;;13.44;96.57;100629.00;4982055;28;19941;-51
2023/04/23 07:38:42;;;;;;;;;;;;;;;13.47;95.07;100634.22;4984396;28;19921;-53
2023/04/23 07:41:07;;;;;;;;;;;;;;;13.50;97.53;100623.03;4985615;28;20438;-51
2023/04/23 07:43:32;;;;;;;;;;;;;;;13.57;93.65;100630.88;4980087;28;19921;-52
2023/04/23 07:45:57;;;;;;;;;;;;;;;13.56;97.15;100620.53;4980413;28;19926;-51
2023/04/23 07:48:23;;;;;;;;;;;;;;;13.72;97.10;100619.00;4985153;28;20023;-52
2023/04/23 07:50:48;;;;;;;;;;;;;;;13.72;93.86;100612.13;4978442;28;19965;-52
2023/04/23 07:53:13;;;;;;;;;;;;;;;13.84;96.51;100619.13;4981879;28;19995;-52
2023/04/23 07:55:38;;;;;;;;;;;;;;;13.97;93.08;100613.25;4976703;28;19926;-49
2023/04/23 07:58:04;;;;;;;;;;;;;;;14.01;92.52;100609.81;4985655;28;19941;-52
2023/04/23 08:00:29;;;;;;;;;;;;;;;14.03;90.34;100625.34;4977223;28;19958;-52
2023/04/23 08:02:54;;;;;;;;;;;;;;;13.93;92.28;100614.03;4983516;28;20456;-53
2023/04/23 08:05:20;;;;;;;;;;;;;;;13.89;89.36;100617.44;4981593;28;20014;-52
2023/04/23 08:07:45;;;;;;;;;;;;;;;13.87;91.74;100614.84;4982926;28;19922;-52
2023/04/23 08:10:10;;;;;;;;;;;;;;;13.93;90.68;100612.31;4993525;28;19926;-52
2023/04/23 08:12:36;;;;;;;;;;;;;;;14.06;93.45;100607.28;4980239;28;19929;-52
2023/04/23 08:15:01;;;;;;;;;;;;;;;14.27;91.76;100607.50;4976220;28;20001;-52
2023/04/23 08:17:27;;;;;;;;;;;;;;;14.37;90.68;100601.53;4982202;28;20410;-51
2023/04/23 08:19:52;;;;;;;;;;;;;;;14.49;92.21;100609.41;4990293;28;19970;-53
2023/04/23 08:22:17;;;;;;;;;;;;;;;14.60;88.21;100613.81;4980159;28;19921;-53
2023/04/23 08:24:43;;;;;;;;;;;;;;;14.63;86.45;100611.28;4984979;28;19918;-49
2023/04/23 08:27:09;;;;;;;;;;;;;;;14.62;87.86;100607.81;4979610;28;19961;-55
2023/04/23 08:29:34;;;;;;;;;;;;;;;14.53;88.67;100602.56;4983019;28;19980;-49
2023/04/23 08:32:00;;;;;;;;;;;;;;;14.61;86.23;100594.84;4976260;28;19926;-51
2023/04/23 08:34:25;;;;;;;;;;;;;;;14.64;88.03;100595.75;4980990;28;20028;-51
2023/04/23 08:36:50;;;;;;;;;;;;;;;14.81;85.96;100592.41;4996831;28;19982;-49
2023/04/23 08:39:16;;;;;;;;;;;;;;;14.83;86.33;100590.69;4977928;28;19922;-50
2023/04/23 08:41:42;;;;;;;;;;;;;;;14.78;86.12;100589.78;4985227;28;20032;-49
2023/04/23 08:44:14;;;;;;;;;;;;;;;14.74;84.51;100591.47;4996505;28;19918;-54
2023/04/23 08:46:41;;;;;;;;;;;;;;;14.63;86.46;100596.59;4995906;28;20672;-53
2023/04/23 08:49:08;;;;;;;;;;;;;;;14.63;85.29;100596.59;5002215;28;19932;-51
2023/04/23 08:51:36;;;;;;;;;;;;;;;14.62;84.77;100589.72;4995500;28;20380;-52
2023/04/23 08:54:03;;;;;;;;;;;;;;;14.68;84.79;100594.03;5011949;28;19972;-50
2023/04/23 08:56:29;;;;;;;;;;;;;;;14.74;85.83;100588.91;4993358;28;20033;-50
2023/04/23 08:58:55;;;;;;;;;;;;;;;14.83;84.47;100590.69;4992345;28;20024;-44
2023/04/23 09:01:20;;;;;;;;;;;;;;;14.92;83.99;100589.00;5009491;28;19921;-43
2023/04/23 09:03:45;;;;;;;;;;;;;;;14.95;84.37;100586.47;4991042;28;19929;-44
2023/04/23 09:06:11;;;;;;;;;;;;;;;15.01;82.81;100590.81;4995575;28;19922;-42
2023/04/23 09:08:37;;;;;;;;;;;;;;;15.10;80.59;100588.25;4988533;28;20402;-44
2023/04/23 09:11:03;;;;;;;;;;;;;;;14.99;83.77;100580.44;4994198;28;19943;-42
2023/04/23 09:13:30;;;;;;;;;;;;;;;15.09;83.98;100589.13;4990997;28;21176;-52
2023/04/23 09:15:55;;;;;;;;;;;;;;;15.17;82.83;100581.41;5003039;28;19925;-52
2023/04/23 09:18:21;;;;;;;;;;;;;;;15.21;80.33;100580.53;4992940;28;19925;-52
2023/04/23 09:20:46;;;;;;;;;;;;;;;15.25;78.53;100582.28;4986803;28;19920;-51
2023/04/23 09:23:15;;;;;;;;;;;;;;;15.30;79.05;100583.19;4992605;28;19928;-50
2023/04/23 09:25:40;;;;;;;;;;;;;;;15.41;78.25;100581.50;4990621;28;20060;-53
2023/04/23 09:28:06;;;;;;;;;;;;;;;15.56;75.97;100576.38;4992537;28;20024;-53
2023/04/23 09:30:37;;;;;;;;;;;;;;;15.70;75.01;100584.19;5005986;28;20059;-51
2023/04/23 09:33:03;;;;;;;;;;;;;;;15.72;73.11;100584.22;5005712;28;19918;-52
2023/04/23 09:35:29;;;;;;;;;;;;;;;15.80;71.68;100579.91;5002998;28;19997;-53
2023/04/23 09:37:54;;;;;;;;;;;;;;;15.72;73.82;100572.13;5011270;28;19975;-52
2023/04/23 09:40:22;;;;;;;;;;;;;;;15.83;72.63;100577.31;5005332;28;19925;-53
2023/04/23 09:42:54;;;;;;;;;;;;;;;15.91;71.20;100572.16;4995262;28;19932;-52
2023/04/23 09:45:19;;;;;;;;;;;;;;;16.04;68.95;100567.00;5000025;28;19926;-53
2023/04/23 09:47:55;;;;;;;;;;;;;;;16.14;68.31;100564.38;5003097;28;20367;-53
2023/04/23 09:50:33;;;;;;;;;;;;;;;16.22;72.44;100560.09;4993140;28;19929;-51
2023/04/23 09:52:59;;;;;;;;;;;;;;;16.32;64.34;100565.28;5002620;28;19921;-54
2023/04/23 09:55:34;;;;;;;;;;;;;;;16.26;68.12;100559.19;4994878;28;19960;-51
2023/04/23 09:58:00;;;;;;;;;;;;;;;16.28;67.27;100557.50;5002429;28;19929;-51
2023/04/23 10:00:29;;;;;;;;;;;;;;;16.36;68.51;100561.81;4999142;28;19921;-52
2023/04/23 10:02:54;;;;;;;;;;;;;;;16.44;64.83;100560.94;4996560;28;19987;-52
2023/04/23 10:05:21;;;;;;;;;;;;;;;16.36;66.23;100545.38;4998666;28;19922;-53
2023/04/23 10:07:50;;;;;;;;;;;;;;;16.28;64.20;100555.75;4993878;28;19918;-52
2023/04/23 10:10:16;;;;;;;;;;;;;;;16.16;63.63;100547.13;4994508;28;19932;-50
2023/04/23 10:12:42;;;;;;;;;;;;;;;16.22;65.50;100547.13;4998712;28;19928;-52
2023/04/23 10:15:08;;;;;;;;;;;;;;;16.32;66.45;100539.34;5000335;28;19922;-52
2023/04/23 10:17:37;;;;;;;;;;;;;;;16.47;62.37;100546.22;4999741;28;20027;-51
2023/04/23 10:20:02;;;;;;;;;;;;;;;16.55;63.65;100541.88;5001196;28;19984;-52
2023/04/23 10:22:29;;;;;;;;;;;;;;;16.61;64.54;100541.00;4993230;28;19930;-52
2023/04/23 10:24:57;;;;;;;;;;;;;;;16.78;63.80;100543.63;5002197;28;20365;-52
2023/04/23 10:27:25;;;;;;;;;;;;;;;16.89;65.52;100526.28;4989748;28;19925;-53
2023/04/23 10:29:50;;;;;;;;;;;;;;;17.11;64.52;100533.13;4993343;28;19980;-50
2023/04/23 10:32:16;;;;;;;;;;;;;;;17.38;63.40;100531.28;4983267;28;19959;-51
2023/04/23 10:34:42;;;;;;;;;;;;;;;17.42;60.42;100526.06;4990313;28;19942;-51
2023/04/23 10:37:07;;;;;;;;;;;;;;;17.41;61.30;100533.84;4994436;28;20378;-52
2023/04/23 10:39:33;;;;;;;;;;;;;;;17.46;61.63;100534.69;4995686;28;19921;-52
2023/04/23 10:41:59;;;;;;;;;;;;;;;17.40;61.11;100532.13;4987445;28;19926;-52
2023/04/23 10:44:31;;;;;;;;;;;;;;;17.25;64.02;100522.66;4989993;28;19934;-52
2023/04/23 10:46:56;;;;;;;;;;;;;;;17.16;59.95;100520.09;4987030;28;19925;-51
2023/04/23 10:49:23;;;;;;;;;;;;;;;17.04;60.89;100514.97;5000553;28;19986;-52
2023/04/23 10:51:48;;;;;;;;;;;;;;;16.93;64.74;100516.72;4993248;28;19938;-50
2023/04/23 10:54:14;;;;;;;;;;;;;;;16.92;64.21;100512.41;4997781;28;19930;-53
2023/04/23 10:56:40;;;;;;;;;;;;;;;16.85;63.05;100507.22;5003986;28;19925;-53
2023/04/23 10:59:22;;;;;;;;;;;;;;;16.81;65.50;100502.06;5013728;28;20279;-53
2023/04/23 11:01:49;;;;;;;;;;;;;;;16.80;63.32;100497.72;4993306;28;19924;-52
2023/04/23 11:04:22;;;;;;;;;;;;;;;16.88;62.84;100493.38;4991199;28;19926;-50
2023/04/23 11:06:47;;;;;;;;;;;;;;;16.89;62.57;100500.31;4994042;28;19968;-51
2023/04/23 11:09:31;;;;;;;;;;;;;;;16.86;63.10;100488.19;5005157;28;20250;-48
2023/04/23 11:11:57;;;;;;;;;;;;;;;17.01;65.27;100492.47;4999041;28;19991;-52
2023/04/23 11:14:35;;;;;;;;;;;;;;;17.22;60.93;100494.09;5002447;28;19971;-52
2023/04/23 11:17:01;;;;;;;;;;;;;;;17.08;62.74;100486.38;4995998;28;19918;-53
2023/04/23 11:19:26;;;;;;;;;;;;;;;17.11;61.42;100488.97;5005220;28;19926;-53
2023/04/23 11:22:06;;;;;;;;;;;;;;;17.03;63.44;100477.72;5008316;28;19925;-54
2023/04/23 11:24:36;;;;;;;;;;;;;;;16.97;64.01;100467.38;5003295;28;19985;-52
2023/04/23 11:27:04;;;;;;;;;;;;;;;16.93;63.75;100459.59;5003878;28;20303;-53
2023/04/23 11:29:30;;;;;;;;;;;;;;;16.92;64.62;100465.66;5008463;28;19922;-49
2023/04/23 11:31:55;;;;;;;;;;;;;;;16.88;65.37;100459.63;5007808;28;19944;-50
2023/04/23 11:34:21;;;;;;;;;;;;;;;16.89;65.30;100449.22;5008753;28;19922;-54
2023/04/23 11:36:47;;;;;;;;;;;;;;;16.92;65.20;100455.28;5002837;28;19925;-54
2023/04/23 11:39:13;;;;;;;;;;;;;;;17.06;65.79;100446.56;4988605;28;19923;-53
2023/04/23 11:41:38;;;;;;;;;;;;;;;17.20;63.75;100433.47;4988970;28;19935;-51
2023/04/23 11:44:05;;;;;;;;;;;;;;;17.10;64.34;100431.81;5004162;28;20058;-52
2023/04/23 11:46:30;;;;;;;;;;;;;;;16.99;63.03;100429.28;4996968;28;19925;-51
2023/04/23 11:48:56;;;;;;;;;;;;;;;17.03;64.11;100427.50;4986349;28;19928;-52
2023/04/23 11:51:25;;;;;;;;;;;;;;;17.01;64.23;100424.94;4995737;28;19949;-50
2023/04/23 11:53:52;;;;;;;;;;;;;;;16.99;60.17;100439.69;5000476;28;20505;-52
2023/04/23 11:56:18;;;;;;;;;;;;;;;16.71;65.00;100441.50;4995552;28;19929;-51
2023/04/23 11:58:44;;;;;;;;;;;;;;;16.32;67.05;100429.50;4997697;28;19918;-51
2023/04/23 12:01:11;;;;;;;;;;;;;;;15.96;66.57;100430.41;4993601;28;20334;-51
2023/04/23 12:03:36;;;;;;;;;;;;;;;15.89;68.57;100415.72;4994918;28;20043;-48
2023/04/23 12:06:02;;;;;;;;;;;;;;;16.02;69.10;100410.53;4987005;28;20028;-49
2023/04/23 12:08:31;;;;;;;;;;;;;;;16.22;68.24;100401.84;4991537;28;20302;-58
2023/04/23 12:11:00;;;;;;;;;;;;;;;16.45;70.83;100400.06;5000995;28;20344;-52
2023/04/23 12:13:28;;;;;;;;;;;;;;;16.79;69.09;100394.75;4992315;28;19997;-51
2023/04/23 12:15:55;;;;;;;;;;;;;;;17.00;67.02;100389.44;4987854;28;19918;-51
2023/04/23 12:18:26;;;;;;;;;;;;;;;17.03;67.77;100385.97;5016607;28;19914;-52
2023/04/23 12:20:51;;;;;;;;;;;;;;;17.15;66.49;100383.28;4993947;28;19938;-50
2023/04/23 12:23:17;;;;;;;;;;;;;;;17.27;67.05;100382.34;4997690;28;19926;-49
2023/04/23 12:25:42;;;;;;;;;;;;;;;17.49;66.58;100373.53;4984770;28;20377;-51
2023/04/23 12:28:07;;;;;;;;;;;;;;;17.51;65.46;100368.28;4996406;28;19982;-44
2023/04/23 12:30:33;;;;;;;;;;;;;;;17.44;63.17;100367.50;4986928;28;19926;-46